TimeMST,TemperatureF,Dew PointF,Humidity,Sea Level PressureIn,VisibilityMPH,Wind Direction,Wind SpeedMPH,Gust SpeedMPH,PrecipitationIn,Events,Conditions,WindDirDegrees,DateUTC
12:15 AM,21.2,15.8,80,30.13,7.0,Calm,Calm,-,N/A,,Overcast,0,2013-01-08 07:15:00
12:35 AM,21.2,17.6,86,30.13,7.0,SW,3.5,-,N/A,,Overcast,220,2013-01-08 07:35:00
12:55 AM,21.2,15.8,80,30.14,7.0,Calm,Calm,-,N/A,,Overcast,0,2013-01-08 07:55:00
1:15 AM,17.6,14.0,86,30.13,7.0,WNW,3.5,-,N/A,,Mostly Cloudy,300,2013-01-08 08:15:00
1:55 AM,17.6,14.0,86,30.14,7.0,Calm,Calm,-,N/A,,Overcast,0,2013-01-08 08:55:00
2:15 AM,19.4,14.0,80,30.14,7.0,NNW,3.5,-,N/A,,Overcast,330,2013-01-08 09:15:00
2:35 AM,19.4,14.0,80,30.16,7.0,Calm,Calm,-,N/A,,Overcast,0,2013-01-08 09:35:00
2:55 AM,17.6,12.2,79,30.16,7.0,East,4.6,-,N/A,,Scattered Clouds,90,2013-01-08 09:55:00
3:15 AM,15.8,12.2,86,30.16,7.0,ESE,3.5,-,N/A,,Scattered Clouds,110,2013-01-08 10:15:00
3:35 AM,17.6,12.2,79,30.16,7.0,NNW,4.6,-,N/A,,Overcast,330,2013-01-08 10:35:00
3:55 AM,17.6,14.0,86,30.16,5.0,Calm,Calm,-,N/A,,Overcast,0,2013-01-08 10:55:00
4:15 AM,17.6,14.0,86,30.16,5.0,Calm,Calm,-,N/A,,Overcast,0,2013-01-08 11:15:00
4:35 AM,19.4,14.0,80,30.16,5.0,Calm,Calm,-,N/A,,Overcast,0,2013-01-08 11:35:00
4:55 AM,19.4,15.8,86,30.16,5.0,Calm,Calm,-,N/A,,Overcast,0,2013-01-08 11:55:00
5:15 AM,21.2,15.8,80,30.16,7.0,Calm,Calm,-,N/A,,Overcast,0,2013-01-08 12:15:00
5:35 AM,21.2,17.6,86,30.16,7.0,Calm,Calm,-,N/A,,Overcast,0,2013-01-08 12:35:00
5:55 AM,19.4,15.8,86,30.17,5.0,Calm,Calm,-,N/A,,Overcast,0,2013-01-08 12:55:00
6:15 AM,19.4,15.8,86,30.18,5.0,Calm,Calm,-,N/A,,Overcast,0,2013-01-08 13:15:00
6:35 AM,19.4,15.8,86,30.20,5.0,Calm,Calm,-,N/A,,Overcast,0,2013-01-08 13:35:00
6:55 AM,19.4,15.8,86,30.19,7.0,Calm,Calm,-,N/A,,Overcast,0,2013-01-08 13:55:00
7:15 AM,19.4,15.8,86,30.20,7.0,Calm,Calm,-,N/A,,Overcast,0,2013-01-08 14:15:00
7:35 AM,19.4,15.8,86,30.21,5.0,Calm,Calm,-,N/A,,Overcast,0,2013-01-08 14:35:00
7:55 AM,19.4,15.8,86,30.22,4.0,Calm,Calm,-,N/A,,Overcast,0,2013-01-08 14:55:00
8:15 AM,21.2,17.6,86,30.22,4.0,ESE,4.6,-,N/A,,Overcast,120,2013-01-08 15:15:00
8:35 AM,21.2,17.6,86,30.22,5.0,East,3.5,-,N/A,,Haze,90,2013-01-08 15:35:00
8:55 AM,23.0,17.6,80,30.23,5.0,Calm,Calm,-,N/A,,Haze,0,2013-01-08 15:55:00
9:15 AM,21.2,17.6,86,30.24,4.0,Calm,Calm,-,N/A,,Overcast,0,2013-01-08 16:15:00
9:35 AM,21.2,17.6,86,30.25,4.0,Calm,Calm,-,N/A,,Overcast,0,2013-01-08 16:35:00
9:55 AM,21.2,17.6,86,30.26,4.0,Calm,Calm,-,N/A,,Haze,0,2013-01-08 16:55:00
10:15 AM,23.0,17.6,80,30.25,5.0,Calm,Calm,-,N/A,,Haze,0,2013-01-08 17:15:00
10:35 AM,23.0,17.6,80,30.25,5.0,Calm,Calm,-,N/A,,Haze,0,2013-01-08 17:35:00
10:55 AM,24.8,17.6,74,30.25,5.0,Calm,Calm,-,N/A,,Haze,0,2013-01-08 17:55:00
11:15 AM,26.6,17.6,69,30.25,5.0,Calm,Calm,-,N/A,,Haze,0,2013-01-08 18:15:00
11:35 AM,26.6,17.6,69,30.25,5.0,Calm,Calm,-,N/A,,Haze,0,2013-01-08 18:35:00
12:15 PM,28.4,17.6,64,30.23,7.0,Calm,Calm,-,N/A,,Scattered Clouds,0,2013-01-08 19:15:00
12:35 PM,28.4,17.6,64,30.23,7.0,Calm,Calm,-,N/A,,Mostly Cloudy,0,2013-01-08 19:35:00
12:55 PM,28.4,14.0,55,30.23,10.0,Calm,Calm,-,N/A,,Overcast,0,2013-01-08 19:55:00
1:15 PM,30.2,14.0,51,30.23,10.0,Calm,Calm,-,N/A,,Mostly Cloudy,0,2013-01-08 20:15:00
1:35 PM,32.0,17.6,55,30.22,10.0,ESE,3.5,-,N/A,,Mostly Cloudy,120,2013-01-08 20:35:00
1:55 PM,32.0,19.4,60,30.22,10.0,Calm,Calm,-,N/A,,Overcast,0,2013-01-08 20:55:00
2:15 PM,32.0,21.2,64,30.23,10.0,WSW,3.5,-,N/A,,Overcast,250,2013-01-08 21:15:00
2:35 PM,32.0,19.4,60,30.23,10.0,Calm,Calm,-,N/A,,Overcast,0,2013-01-08 21:35:00
2:55 PM,32.0,19.4,60,30.23,10.0,Calm,Calm,-,N/A,,Overcast,0,2013-01-08 21:55:00
3:15 PM,32.0,19.4,60,30.25,10.0,Calm,Calm,-,N/A,,Overcast,0,2013-01-08 22:15:00
3:35 PM,33.8,21.2,60,30.25,10.0,Calm,Calm,-,N/A,,Overcast,0,2013-01-08 22:35:00
3:55 PM,32.0,21.2,64,30.26,10.0,Calm,Calm,-,N/A,,Overcast,0,2013-01-08 22:55:00
4:15 PM,33.8,23.0,65,30.26,10.0,Calm,Calm,-,N/A,,Overcast,0,2013-01-08 23:15:00
4:35 PM,32.0,21.2,64,30.27,10.0,Calm,Calm,-,N/A,,Overcast,0,2013-01-08 23:35:00
4:55 PM,32.0,23.0,69,30.28,10.0,Calm,Calm,-,N/A,,Overcast,0,2013-01-08 23:55:00
5:35 PM,30.2,23.0,75,30.29,10.0,Calm,Calm,-,N/A,,Overcast,0,2013-01-09 00:35:00
6:15 PM,30.2,23.0,75,30.30,10.0,ESE,3.5,-,N/A,,Overcast,110,2013-01-09 01:15:00
6:55 PM,30.2,23.0,75,30.31,7.0,Calm,Calm,-,N/A,,Overcast,0,2013-01-09 01:55:00
7:15 PM,30.2,23.0,75,30.32,7.0,Calm,Calm,-,N/A,,Overcast,0,2013-01-09 02:15:00
7:35 PM,30.2,24.8,80,30.32,7.0,Calm,Calm,-,N/A,,Overcast,0,2013-01-09 02:35:00
7:55 PM,30.2,24.8,80,30.33,7.0,Calm,Calm,-,N/A,,Overcast,0,2013-01-09 02:55:00
8:15 PM,30.2,24.8,80,30.34,7.0,Calm,Calm,-,N/A,,Overcast,0,2013-01-09 03:15:00
8:35 PM,28.4,24.8,86,30.35,7.0,Calm,Calm,-,N/A,,Overcast,0,2013-01-09 03:35:00
8:55 PM,28.4,24.8,86,30.35,7.0,Calm,Calm,-,N/A,,Overcast,0,2013-01-09 03:55:00
9:15 PM,28.4,24.8,86,30.35,7.0,Calm,Calm,-,N/A,,Overcast,0,2013-01-09 04:15:00
9:35 PM,28.4,23.0,80,30.36,7.0,Calm,Calm,-,N/A,,Overcast,0,2013-01-09 04:35:00
9:55 PM,26.6,23.0,86,30.36,7.0,Calm,Calm,-,N/A,,Mostly Cloudy,0,2013-01-09 04:55:00
10:15 PM,26.6,21.2,80,30.36,10.0,Calm,Calm,-,N/A,,Mostly Cloudy,0,2013-01-09 05:15:00
10:35 PM,21.2,17.6,86,30.37,10.0,Calm,Calm,-,N/A,,Scattered Clouds,0,2013-01-09 05:35:00
10:55 PM,19.4,15.8,86,30.37,7.0,ENE,3.5,-,N/A,,Clear,70,2013-01-09 05:55:00
11:15 PM,21.2,17.6,86,30.37,7.0,East,5.8,-,N/A,,Clear,100,2013-01-09 06:15:00
11:35 PM,19.4,17.6,93,30.37,7.0,Calm,Calm,-,N/A,,Clear,0,2013-01-09 06:35:00
11:55 PM,17.6,15.8,93,30.38,7.0,West,3.5,-,N/A,,Clear,260,2013-01-09 06:55:00